createdAt,value
2022-12-23T00:01:50.386Z,18.90
2022-12-23T00:04:17.101Z,18.80
2022-12-23T00:06:43.784Z,18.80
2022-12-23T00:09:10.417Z,18.90
2022-12-23T00:11:37.034Z,18.80
2022-12-23T00:14:22.536Z,18.80
2022-12-23T00:16:50.752Z,18.80
2022-12-23T00:19:17.693Z,18.80
2022-12-23T00:21:44.311Z,18.80
2022-12-23T00:24:11.690Z,18.80
2022-12-23T00:26:38.814Z,18.80
2022-12-23T00:29:05.467Z,18.80
2022-12-23T00:31:32.272Z,18.80
2022-12-23T00:33:58.996Z,18.80
2022-12-23T00:36:30.190Z,18.80
2022-12-23T00:39:17.374Z,18.80
2022-12-23T00:42:03.276Z,18.80
2022-12-23T00:44:29.919Z,18.80
2022-12-23T00:46:56.563Z,18.80
2022-12-23T00:49:41.932Z,18.80
2022-12-23T00:52:11.752Z,18.80
2022-12-23T00:54:38.747Z,18.80
2022-12-23T00:57:06.021Z,18.80
2022-12-23T00:59:33.712Z,18.80
2022-12-23T01:02:18.824Z,18.80
2022-12-23T01:05:03.890Z,18.70
2022-12-23T01:07:30.572Z,18.80
2022-12-23T01:09:57.188Z,18.70
2022-12-23T01:12:23.791Z,18.80
2022-12-23T01:14:50.424Z,18.70
2022-12-23T01:17:18.470Z,18.70
2022-12-23T01:19:45.237Z,18.70
2022-12-23T01:22:11.870Z,18.60
2022-12-23T01:24:38.498Z,18.70
2022-12-23T01:27:05.116Z,18.70
2022-12-23T01:29:31.781Z,18.70
2022-12-23T01:31:58.451Z,18.70
2022-12-23T01:34:28.481Z,18.70
2022-12-23T01:36:57.711Z,18.70
2022-12-23T01:39:24.299Z,18.70
2022-12-23T01:42:09.500Z,18.70
2022-12-23T01:44:49.804Z,18.70
2022-12-23T01:47:23.393Z,18.70
2022-12-23T01:49:52.650Z,18.60
2022-12-23T01:52:19.986Z,18.70
2022-12-23T01:54:46.683Z,18.70
2022-12-23T01:57:13.482Z,18.60
2022-12-23T02:00:00.662Z,18.70
2022-12-23T02:02:50.352Z,18.70
2022-12-23T02:05:17.316Z,18.60
2022-12-23T02:08:02.487Z,18.60
2022-12-23T02:10:40.099Z,18.60
2022-12-23T02:13:31.082Z,18.70
2022-12-23T02:16:17.745Z,18.70
2022-12-23T02:19:08.175Z,18.70
2022-12-23T02:22:21.824Z,18.70
2022-12-23T02:24:59.479Z,18.60
2022-12-23T02:27:33.116Z,18.60
2022-12-23T02:29:59.684Z,18.60
2022-12-23T02:32:41.430Z,18.60
2022-12-23T02:35:29.666Z,18.60
2022-12-23T02:38:00.170Z,18.60
2022-12-23T02:41:05.732Z,18.60
2022-12-23T02:43:45.577Z,18.60
2022-12-23T02:46:30.650Z,18.60
2022-12-23T02:49:04.414Z,18.60
2022-12-23T02:51:35.739Z,18.60
2022-12-23T02:54:06.302Z,18.60
2022-12-23T02:56:35.781Z,18.60
2022-12-23T02:59:08.490Z,18.60
2022-12-23T03:01:36.653Z,18.60
2022-12-23T03:04:03.393Z,18.60
2022-12-23T03:06:34.692Z,18.50
2022-12-23T03:09:01.403Z,18.60
2022-12-23T03:11:57.504Z,18.60
2022-12-23T03:15:01.651Z,18.50
2022-12-23T03:17:44.280Z,18.60
2022-12-23T03:20:25.770Z,18.50
2022-12-23T03:23:11.810Z,18.60
2022-12-23T03:25:57.068Z,18.50
2022-12-23T03:28:44.459Z,18.60
2022-12-23T03:31:17.069Z,18.50
2022-12-23T03:33:51.135Z,18.50
2022-12-23T03:36:44.618Z,18.50
2022-12-23T03:39:17.206Z,18.50
2022-12-23T03:41:56.234Z,18.50
2022-12-23T03:44:30.039Z,18.50
2022-12-23T03:47:07.869Z,18.50
2022-12-23T03:49:41.621Z,18.50
2022-12-23T03:52:20.575Z,18.50
2022-12-23T03:54:57.701Z,18.50
2022-12-23T03:57:49.461Z,18.50
2022-12-23T04:00:16.308Z,18.50
2022-12-23T04:02:59.415Z,18.50
2022-12-23T04:05:36.048Z,18.50
2022-12-23T04:08:27.171Z,18.50
2022-12-23T04:10:54.061Z,18.50
2022-12-23T04:13:20.675Z,18.50
2022-12-23T04:15:47.811Z,18.50
2022-12-23T04:18:16.161Z,18.50
2022-12-23T04:20:42.821Z,18.40
2022-12-23T04:23:09.406Z,18.50
2022-12-23T04:25:35.998Z,18.50
2022-12-23T04:28:02.931Z,18.50
2022-12-23T04:30:33.908Z,18.50
2022-12-23T04:33:01.548Z,18.50
2022-12-23T04:35:28.325Z,18.50
2022-12-23T04:37:55.054Z,18.40
2022-12-23T04:40:21.745Z,18.40
2022-12-23T04:42:48.381Z,18.40
2022-12-23T04:45:15.175Z,18.50
2022-12-23T04:47:41.867Z,20.90
2022-12-23T04:50:10.435Z,18.40
2022-12-23T04:52:37.023Z,18.50
2022-12-23T04:55:03.832Z,18.70
2022-12-23T04:57:30.734Z,18.40
2022-12-23T04:59:57.310Z,18.40
2022-12-23T05:02:24.051Z,18.40
2022-12-23T05:04:50.722Z,18.40
2022-12-23T05:07:17.547Z,18.40
2022-12-23T05:09:44.198Z,18.40
2022-12-23T05:12:10.785Z,18.30
2022-12-23T05:14:37.366Z,18.40
2022-12-23T05:17:07.749Z,18.40
2022-12-23T05:19:35.598Z,18.40
2022-12-23T05:22:02.255Z,18.40
2022-12-23T05:24:28.893Z,18.40
2022-12-23T05:26:59.800Z,18.40
2022-12-23T05:29:27.040Z,18.40
2022-12-23T05:31:53.830Z,18.40
2022-12-23T05:34:20.983Z,18.40
2022-12-23T05:36:47.589Z,18.40
2022-12-23T05:39:14.348Z,18.40
2022-12-23T05:41:40.960Z,18.40
2022-12-23T05:44:07.584Z,18.40
2022-12-23T05:46:34.443Z,18.40
2022-12-23T05:49:01.523Z,18.40
2022-12-23T05:51:28.265Z,18.40
2022-12-23T05:53:55.027Z,18.40
2022-12-23T05:56:23.806Z,18.40
2022-12-23T05:58:50.411Z,18.40
2022-12-23T06:01:17.061Z,18.40
2022-12-23T06:03:43.968Z,18.40
2022-12-23T06:06:10.667Z,18.40
2022-12-23T06:08:37.289Z,18.40
2022-12-23T06:11:05.510Z,18.40
2022-12-23T06:13:32.154Z,18.40
2022-12-23T06:15:58.760Z,18.30
2022-12-23T06:18:25.349Z,18.40
2022-12-23T06:20:51.952Z,18.40
2022-12-23T06:23:18.537Z,18.40
2022-12-23T06:25:45.125Z,18.40
2022-12-23T06:28:11.783Z,18.40
2022-12-23T06:30:38.428Z,18.40
2022-12-23T06:33:05.024Z,18.40
2022-12-23T06:35:31.681Z,18.40
2022-12-23T06:37:58.281Z,18.40
2022-12-23T06:40:24.978Z,18.40
2022-12-23T06:42:51.579Z,18.40
2022-12-23T06:45:18.264Z,18.40
2022-12-23T06:47:45.169Z,18.40
2022-12-23T06:50:14.125Z,18.40
2022-12-23T06:52:40.735Z,18.40
2022-12-23T06:55:07.746Z,18.40
2022-12-23T06:57:34.349Z,18.40
2022-12-23T07:00:04.366Z,18.40
2022-12-23T07:02:31.058Z,18.40
2022-12-23T07:04:57.682Z,18.40
2022-12-23T07:07:24.511Z,18.40
2022-12-23T07:09:51.092Z,18.40
2022-12-23T07:12:17.738Z,18.40
2022-12-23T07:14:44.320Z,18.40
2022-12-23T07:17:11.072Z,18.40
2022-12-23T07:19:37.832Z,18.40
2022-12-23T07:22:04.664Z,18.40
2022-12-23T07:24:31.271Z,18.40
2022-12-23T07:26:58.001Z,18.40
2022-12-23T07:29:24.629Z,18.40
2022-12-23T07:31:51.306Z,18.40
2022-12-23T07:34:17.956Z,18.40
2022-12-23T07:36:44.654Z,18.40
2022-12-23T07:39:11.288Z,19.50
2022-12-23T07:41:37.889Z,18.40
2022-12-23T07:44:04.546Z,18.40
2022-12-23T07:46:31.305Z,18.50
2022-12-23T07:48:58.139Z,18.50
2022-12-23T07:51:25.274Z,18.50
2022-12-23T07:53:51.912Z,18.60
2022-12-23T07:56:18.913Z,18.60
2022-12-23T07:58:50.065Z,18.60
2022-12-23T08:01:18.119Z,18.60
2022-12-23T08:03:45.186Z,18.60
2022-12-23T08:06:14.200Z,18.60
2022-12-23T08:08:45.309Z,18.70
2022-12-23T08:11:13.825Z,18.70
2022-12-23T08:13:42.267Z,18.70
2022-12-23T08:16:09.697Z,18.70
2022-12-23T08:18:38.927Z,18.70
2022-12-23T08:21:12.563Z,18.80
2022-12-23T08:23:39.313Z,18.80
2022-12-23T08:26:09.099Z,18.80
2022-12-23T08:28:37.736Z,18.80
2022-12-23T08:31:08.949Z,18.80
2022-12-23T08:33:38.008Z,18.80
2022-12-23T08:36:06.639Z,18.90
2022-12-23T08:38:34.029Z,18.90
2022-12-23T08:41:00.850Z,18.90
2022-12-23T08:43:33.612Z,18.80
2022-12-23T08:46:02.544Z,18.90
2022-12-23T08:48:29.412Z,18.90
2022-12-23T08:50:56.038Z,18.90
2022-12-23T08:53:22.773Z,18.90
2022-12-23T08:55:49.474Z,18.90
2022-12-23T08:58:16.419Z,18.90
2022-12-23T09:00:43.009Z,19.00
2022-12-23T09:03:09.890Z,19.00
2022-12-23T09:05:41.103Z,19.00
2022-12-23T09:08:08.947Z,19.00
2022-12-23T09:10:41.315Z,19.00
2022-12-23T09:13:08.783Z,19.00
2022-12-23T09:15:38.676Z,19.00
2022-12-23T09:18:05.870Z,19.00
2022-12-23T09:20:32.662Z,19.00
2022-12-23T09:23:01.624Z,19.00
2022-12-23T09:25:28.327Z,19.00
2022-12-23T09:27:54.969Z,19.00
2022-12-23T09:30:21.595Z,18.90
2022-12-23T09:32:48.305Z,18.90
2022-12-23T09:35:15.078Z,19.00
2022-12-23T09:37:41.698Z,19.00
2022-12-23T09:40:12.050Z,18.90
2022-12-23T09:42:45.454Z,18.90
2022-12-23T09:45:40.512Z,19.00
2022-12-23T09:48:16.331Z,19.00
2022-12-23T09:50:43.400Z,19.00
2022-12-23T09:53:19.975Z,19.00
2022-12-23T09:55:57.292Z,19.00
2022-12-23T09:58:28.911Z,19.00
2022-12-23T10:01:13.454Z,19.00
2022-12-23T10:03:58.677Z,19.00
2022-12-23T10:06:30.440Z,18.90
2022-12-23T10:09:01.341Z,19.00
2022-12-23T10:11:42.616Z,19.00
2022-12-23T10:14:20.745Z,19.00
2022-12-23T10:16:57.952Z,19.00
2022-12-23T10:19:34.330Z,19.00
2022-12-23T10:22:02.787Z,19.10
2022-12-23T10:24:41.213Z,19.00
2022-12-23T10:27:32.285Z,19.00
2022-12-23T10:30:20.004Z,19.00
2022-12-23T10:33:29.715Z,19.00
2022-12-23T10:36:12.158Z,19.00
2022-12-23T10:39:16.055Z,19.00
2022-12-23T10:42:01.202Z,19.00
2022-12-23T10:44:53.856Z,19.00
2022-12-23T10:47:41.671Z,19.00
2022-12-23T10:50:36.234Z,19.10
2022-12-23T10:53:06.209Z,19.10
2022-12-23T10:55:36.118Z,19.10
2022-12-23T10:58:12.902Z,19.10
2022-12-23T11:00:42.953Z,19.10
2022-12-23T11:03:18.593Z,19.10
2022-12-23T11:05:49.011Z,19.20
2022-12-23T11:08:15.671Z,19.20
2022-12-23T11:10:42.377Z,19.10
2022-12-23T11:13:09.057Z,19.10
2022-12-23T11:15:38.520Z,19.10
2022-12-23T11:18:11.101Z,19.20
2022-12-23T11:20:39.790Z,19.20
2022-12-23T11:23:23.323Z,19.20
2022-12-23T11:26:09.803Z,19.20
2022-12-23T11:29:01.996Z,19.20
2022-12-23T11:31:35.120Z,19.20
2022-12-23T11:34:07.230Z,19.20
2022-12-23T11:36:34.862Z,19.20
2022-12-23T11:39:29.054Z,19.20
2022-12-23T11:42:02.708Z,19.20
2022-12-23T11:44:39.209Z,19.20
2022-12-23T11:47:25.641Z,19.20
2022-12-23T11:49:54.951Z,19.20
2022-12-23T11:52:23.861Z,19.20
2022-12-23T11:54:54.870Z,19.20
2022-12-23T11:57:39.516Z,19.20
2022-12-23T12:00:21.067Z,19.30
2022-12-23T12:02:55.989Z,19.30
2022-12-23T12:05:24.141Z,19.20
2022-12-23T12:07:51.886Z,19.20
2022-12-23T12:10:31.661Z,19.30
2022-12-23T12:13:03.589Z,19.20
2022-12-23T12:15:46.570Z,19.20
2022-12-23T12:18:19.437Z,19.30
2022-12-23T12:20:50.570Z,19.30
2022-12-23T12:23:25.396Z,19.30
2022-12-23T12:25:58.192Z,19.20
2022-12-23T12:28:32.554Z,19.20
2022-12-23T12:31:05.837Z,19.30
2022-12-23T12:33:43.733Z,19.30
2022-12-23T12:36:20.471Z,19.30
2022-12-23T12:38:48.462Z,19.30
2022-12-23T12:41:37.921Z,19.30
2022-12-23T12:44:36.767Z,19.30
2022-12-23T12:47:44.749Z,19.30
2022-12-23T12:50:11.120Z,19.30
2022-12-23T12:52:41.839Z,19.30
2022-12-23T12:55:29.547Z,19.30
2022-12-23T12:57:56.389Z,19.30
2022-12-23T13:00:24.728Z,19.30
2022-12-23T13:03:11.215Z,19.30
2022-12-23T13:05:54.418Z,19.30
2022-12-23T13:08:39.911Z,19.30
2022-12-23T13:11:35.503Z,19.30
2022-12-23T13:14:33.996Z,19.30
2022-12-23T13:17:15.452Z,19.40
2022-12-23T13:19:55.123Z,19.30
2022-12-23T13:22:33.310Z,19.30
2022-12-23T13:25:08.131Z,19.30
2022-12-23T13:27:51.925Z,19.30
2022-12-23T13:30:21.468Z,19.40
2022-12-23T13:33:21.786Z,19.40
2022-12-23T13:36:11.672Z,19.40
2022-12-23T13:39:16.940Z,19.40
2022-12-23T13:41:51.534Z,19.40
2022-12-23T13:44:20.528Z,19.40
2022-12-23T13:47:15.371Z,19.30
2022-12-23T13:49:55.412Z,20.40
2022-12-23T13:52:50.963Z,19.40
2022-12-23T13:55:54.916Z,19.40
2022-12-23T13:58:24.435Z,19.40
2022-12-23T14:01:07.884Z,19.40
2022-12-23T14:03:36.189Z,19.40
2022-12-23T14:06:20.082Z,19.40
2022-12-23T14:08:47.615Z,19.50
2022-12-23T14:11:27.870Z,19.50
2022-12-23T14:14:02.253Z,19.50
2022-12-23T14:16:53.441Z,19.60
2022-12-23T14:19:36.942Z,19.60
2022-12-23T14:22:24.369Z,19.50
2022-12-23T14:25:26.722Z,19.50
2022-12-23T14:28:25.479Z,19.40
2022-12-23T14:30:52.324Z,19.40
2022-12-23T14:33:19.119Z,19.30
2022-12-23T14:35:45.772Z,19.30
2022-12-23T14:38:32.497Z,19.30
2022-12-23T14:41:19.624Z,19.20
2022-12-23T14:43:46.209Z,19.20
2022-12-23T14:46:34.391Z,19.20
2022-12-23T14:49:29.836Z,19.20
2022-12-23T14:51:50.763Z,19.20
2022-12-23T14:54:18.478Z,19.10
2022-12-23T14:57:03.248Z,19.10
2022-12-23T15:00:01.347Z,19.10
2022-12-23T15:02:35.358Z,19.10
2022-12-23T15:05:02.616Z,19.10
2022-12-23T15:07:32.382Z,19.00
2022-12-23T15:10:01.975Z,19.10
2022-12-23T15:12:40.574Z,19.10
2022-12-23T15:15:25.163Z,19.10
2022-12-23T15:18:09.556Z,19.20
2022-12-23T15:20:36.195Z,19.20
2022-12-23T15:23:09.952Z,19.20
2022-12-23T15:25:50.225Z,19.20
2022-12-23T15:28:22.425Z,19.20
2022-12-23T15:30:54.625Z,19.20
2022-12-23T15:36:10.933Z,19.20
2022-12-23T15:38:39.358Z,19.20
2022-12-23T15:41:14.720Z,19.20
2022-12-23T15:43:42.605Z,19.30
2022-12-23T15:46:26.783Z,19.30
2022-12-23T15:48:56.261Z,19.30
2022-12-23T15:51:57.783Z,19.20
2022-12-23T15:54:22.785Z,19.30
2022-12-23T15:56:52.297Z,19.30
2022-12-23T15:59:31.845Z,19.30
2022-12-23T16:01:59.257Z,19.40
2022-12-23T16:04:28.962Z,19.40
2022-12-23T16:06:56.389Z,19.40
2022-12-23T16:09:30.972Z,19.50
2022-12-23T16:12:01.109Z,19.50
2022-12-23T16:14:30.759Z,19.50
2022-12-23T16:17:09.607Z,19.50
2022-12-23T16:19:49.474Z,19.50
2022-12-23T16:22:36.080Z,19.50
2022-12-23T16:25:14.910Z,19.50
2022-12-23T16:27:47.050Z,19.50
2022-12-23T16:30:15.911Z,19.40
2022-12-23T16:32:50.678Z,19.50
2022-12-23T16:35:46.582Z,19.40
2022-12-23T16:38:20.095Z,19.40
2022-12-23T16:40:52.084Z,19.40
2022-12-23T16:43:19.870Z,19.40
2022-12-23T16:45:51.116Z,19.40
2022-12-23T16:48:28.272Z,19.40
2022-12-23T16:50:54.962Z,19.40
2022-12-23T16:53:21.901Z,19.40
2022-12-23T16:55:55.287Z,19.40
2022-12-23T16:58:25.169Z,19.40
2022-12-23T17:00:53.254Z,19.30
2022-12-23T17:03:20.677Z,19.30
2022-12-23T17:05:48.193Z,19.30
2022-12-23T17:08:15.334Z,19.30
2022-12-23T17:10:44.541Z,19.40
2022-12-23T17:13:13.956Z,19.40
2022-12-23T17:15:40.624Z,19.30
2022-12-23T17:18:12.839Z,19.30
2022-12-23T17:20:39.713Z,19.30
2022-12-23T17:23:07.116Z,19.40
2022-12-23T17:25:33.745Z,19.40
2022-12-23T17:28:00.346Z,19.40
2022-12-23T17:30:26.980Z,19.30
2022-12-23T17:32:59.520Z,19.30
2022-12-23T17:35:26.710Z,19.30
2022-12-23T17:37:53.671Z,19.20
2022-12-23T17:40:20.638Z,19.30
2022-12-23T17:42:47.736Z,19.30
2022-12-23T17:45:31.738Z,19.20
2022-12-23T17:47:58.417Z,19.20
2022-12-23T17:50:25.155Z,19.30
2022-12-23T17:52:52.526Z,19.30
2022-12-23T17:55:23.065Z,19.30
2022-12-23T17:57:50.191Z,19.20
2022-12-23T18:00:28.051Z,19.20
2022-12-23T18:03:00.447Z,19.20
2022-12-23T18:05:31.851Z,19.20
2022-12-23T18:08:00.831Z,19.20
2022-12-23T18:10:30.881Z,19.20
2022-12-23T18:13:00.918Z,19.20
2022-12-23T18:15:35.597Z,19.20
2022-12-23T18:18:19.003Z,19.20
2022-12-23T18:20:51.919Z,19.20
2022-12-23T18:23:27.707Z,19.20
2022-12-23T18:25:55.628Z,19.20
2022-12-23T18:28:22.816Z,19.20
2022-12-23T18:30:50.461Z,19.10
2022-12-23T18:33:17.527Z,19.10
2022-12-23T18:35:46.741Z,19.20
2022-12-23T18:38:13.495Z,19.10
2022-12-23T18:40:41.141Z,19.10
2022-12-23T18:43:20.711Z,19.10
2022-12-23T18:45:52.806Z,19.10
2022-12-23T18:48:19.786Z,19.10
2022-12-23T18:50:49.132Z,19.10
2022-12-23T18:53:23.908Z,19.10
2022-12-23T18:55:52.357Z,19.10
2022-12-23T18:58:19.352Z,19.10
2022-12-23T19:00:46.857Z,19.10
2022-12-23T19:03:19.306Z,19.10
2022-12-23T19:05:47.987Z,19.10
2022-12-23T19:08:16.833Z,19.20
2022-12-23T19:10:50.100Z,19.10
2022-12-23T19:13:16.917Z,19.10
2022-12-23T19:15:44.524Z,19.10
2022-12-23T19:18:21.601Z,19.10
2022-12-23T19:20:49.467Z,19.10
2022-12-23T19:23:16.215Z,19.10
2022-12-23T19:25:52.730Z,19.10
2022-12-23T19:28:22.076Z,19.10
2022-12-23T19:30:49.105Z,19.10
2022-12-23T19:33:16.182Z,19.20
2022-12-23T19:35:43.604Z,19.20
2022-12-23T19:38:10.698Z,19.20
2022-12-23T19:40:37.399Z,19.30
2022-12-23T19:43:04.142Z,19.30
2022-12-23T19:45:30.959Z,19.30
2022-12-23T19:47:57.564Z,19.20
2022-12-23T19:50:24.258Z,19.30
2022-12-23T19:52:51.514Z,19.20
2022-12-23T19:55:18.239Z,19.20
2022-12-23T19:57:44.903Z,19.20
2022-12-23T20:00:12.143Z,19.20
2022-12-23T20:02:38.761Z,19.30
2022-12-23T20:05:05.899Z,19.30
2022-12-23T20:07:32.499Z,19.30
2022-12-23T20:09:59.117Z,19.30
2022-12-23T20:12:27.813Z,19.30
2022-12-23T20:14:54.437Z,19.30
2022-12-23T20:17:21.191Z,19.30
2022-12-23T20:19:47.796Z,19.30
2022-12-23T20:22:14.429Z,19.30
2022-12-23T20:24:41.175Z,19.30
2022-12-23T20:27:11.441Z,19.30
2022-12-23T20:29:39.290Z,19.30
2022-12-23T20:32:06.069Z,19.30
2022-12-23T20:34:38.595Z,19.20
2022-12-23T20:37:05.943Z,19.20
2022-12-23T20:39:32.600Z,19.20
2022-12-23T20:41:59.235Z,19.20
2022-12-23T20:44:35.226Z,19.20
2022-12-23T20:47:03.677Z,19.20
2022-12-23T20:49:30.538Z,19.10
2022-12-23T20:51:57.258Z,19.10
2022-12-23T20:54:31.688Z,19.10
2022-12-23T20:56:59.612Z,19.10
2022-12-23T20:59:26.397Z,19.10
2022-12-23T21:01:53.157Z,19.10
2022-12-23T21:04:20.398Z,19.10
2022-12-23T21:06:47.013Z,19.10
2022-12-23T21:09:15.223Z,19.10
2022-12-23T21:11:44.652Z,19.10
2022-12-23T21:14:11.887Z,19.10
2022-12-23T21:16:39.612Z,19.10
2022-12-23T21:19:13.029Z,19.10
2022-12-23T21:21:39.660Z,19.10
2022-12-23T21:24:06.495Z,19.10
2022-12-23T21:26:34.315Z,19.00
2022-12-23T21:29:03.656Z,19.10
2022-12-23T21:31:31.770Z,19.00
2022-12-23T21:33:58.904Z,19.00
2022-12-23T21:36:28.777Z,19.10
2022-12-23T21:38:55.505Z,19.10
2022-12-23T21:41:27.966Z,19.10
2022-12-23T21:43:56.929Z,19.10
2022-12-23T21:46:24.469Z,19.20
2022-12-23T21:48:51.471Z,19.20
2022-12-23T21:51:22.103Z,19.10
2022-12-23T21:53:51.169Z,19.10
2022-12-23T21:56:28.830Z,19.20
2022-12-23T21:59:04.509Z,19.20
2022-12-23T22:01:32.166Z,19.20
2022-12-23T22:03:58.874Z,19.10
2022-12-23T22:06:31.665Z,19.10
2022-12-23T22:08:59.183Z,19.20
2022-12-23T22:11:28.113Z,19.20
2022-12-23T22:13:57.143Z,19.30
2022-12-23T22:16:25.472Z,19.30
2022-12-23T22:18:53.108Z,19.30
2022-12-23T22:21:23.961Z,19.30
2022-12-23T22:23:52.322Z,19.30
2022-12-23T22:26:25.436Z,19.40
2022-12-23T22:28:54.187Z,19.40
2022-12-23T22:31:47.544Z,19.40
2022-12-23T22:34:19.720Z,19.40
2022-12-23T22:36:47.263Z,19.40
2022-12-23T22:39:20.107Z,19.40
2022-12-23T22:41:48.780Z,19.50
2022-12-23T22:44:16.204Z,19.50
2022-12-23T22:46:43.277Z,19.50
2022-12-23T22:49:14.461Z,19.50
2022-12-23T22:51:42.198Z,19.50
2022-12-23T22:54:09.361Z,19.50
2022-12-23T22:56:36.446Z,19.50
2022-12-23T22:59:04.705Z,19.50
2022-12-23T23:01:35.340Z,19.50
2022-12-23T23:04:03.901Z,19.50
2022-12-23T23:06:33.075Z,19.50
2022-12-23T23:09:00.165Z,19.40
2022-12-23T23:11:27.729Z,19.30
2022-12-23T23:13:54.553Z,19.30
2022-12-23T23:16:21.763Z,19.20
2022-12-23T23:18:48.554Z,19.20
2022-12-23T23:21:15.824Z,19.20
2022-12-23T23:23:42.426Z,19.20
2022-12-23T23:26:10.205Z,19.20
2022-12-23T23:28:39.194Z,19.20
2022-12-23T23:31:39.632Z,19.10
2022-12-23T23:33:53.007Z,19.10
2022-12-23T23:36:20.559Z,19.10
2022-12-23T23:38:47.203Z,19.10
2022-12-23T23:41:17.420Z,19.10
2022-12-23T23:43:48.977Z,19.10
2022-12-23T23:46:15.696Z,19.10
2022-12-23T23:48:42.423Z,19.10
2022-12-23T23:51:09.027Z,19.00
2022-12-23T23:53:35.723Z,19.00
2022-12-23T23:56:04.617Z,19.10
2022-12-23T23:58:31.569Z,19.00
